Time;durP1;ratioP1;P1;durP2;ratioP2;P2;SDS_P1;SDS_P2;PMS_P1;PMS_P2;Temp;Humidity;BMP_temperature;BMP_pressure;BME280_temperature;BME280_humidity;BME280_pressure;Samples;Min_cycle;Max_cycle;Signal;HPM_P1;HPM_P2
2022/03/05 00:02:01;;;;;;;16.35;8.25;;;25.60;99.90;;;;;;5089404;28;20032;-77
2022/03/05 00:04:28;;;;;;;16.10;8.73;;;25.70;99.90;;;;;;5089557;28;20024;-72
2022/03/05 00:06:55;;;;;;;13.73;8.68;;;25.70;99.90;;;;;;5089313;28;20019;-72
2022/03/05 00:09:23;;;;;;;16.60;9.77;;;25.80;99.90;;;;;;5091468;28;20020;-74
2022/03/05 00:11:50;;;;;;;15.55;9.07;;;25.90;99.90;;;;;;5091004;28;20028;-72
2022/03/05 00:14:18;;;;;;;15.27;9.05;;;25.90;99.90;;;;;;5094257;28;20020;-75
2022/03/05 00:16:45;;;;;;;20.02;10.60;;;26.00;99.90;;;;;;5076553;28;20488;-74
2022/03/05 00:19:12;;;;;;;17.60;10.75;;;26.00;99.90;;;;;;5094568;28;20495;-76
2022/03/05 00:21:40;;;;;;;15.45;10.23;;;26.00;99.90;;;;;;5093954;28;20043;-74
2022/03/05 00:24:07;;;;;;;15.38;9.77;;;26.00;99.90;;;;;;5092426;28;20422;-75
2022/03/05 00:26:34;;;;;;;18.05;11.40;;;26.00;99.90;;;;;;5074703;28;20388;-77
2022/03/05 00:29:02;;;;;;;21.42;12.43;;;26.00;99.90;;;;;;5091884;28;20023;-73
2022/03/05 00:31:29;;;;;;;23.23;13.52;;;26.00;99.90;;;;;;5090778;28;20039;-76
2022/03/05 00:33:56;;;;;;;21.42;12.05;;;26.10;99.90;;;;;;5091889;28;20415;-78
2022/03/05 00:36:24;;;;;;;18.05;13.40;;;26.10;99.90;;;;;;5091163;28;20135;-78
2022/03/05 00:38:51;;;;;;;21.45;14.27;;;26.10;99.90;;;;;;5093065;28;20016;-75
2022/03/05 00:41:18;;;;;;;23.65;14.52;;;26.30;99.90;;;;;;5093051;28;20020;-77
2022/03/05 00:43:45;;;;;;;17.60;12.85;;;26.50;99.90;;;;;;5093983;28;20059;-77
2022/03/05 00:46:13;;;;;;;18.38;13.40;;;26.60;99.90;;;;;;5093591;28;20092;-74
2022/03/05 00:48:40;;;;;;;19.33;13.90;;;26.70;99.90;;;;;;5093957;28;20030;-76
2022/03/05 00:51:07;;;;;;;19.52;14.55;;;26.90;99.90;;;;;;5094589;28;20017;-75
2022/03/05 00:53:35;;;;;;;21.83;13.43;;;26.90;99.90;;;;;;5095452;28;20024;-75
2022/03/05 00:56:02;;;;;;;25.05;15.00;;;26.90;99.90;;;;;;5097171;28;20039;-76
2022/03/05 00:58:30;;;;;;;23.45;14.35;;;26.70;99.90;;;;;;5097622;28;20024;-73
2022/03/05 01:00:58;;;;;;;22.05;14.52;;;26.80;99.90;;;;;;5099022;28;20024;-73
2022/03/05 01:03:25;;;;;;;22.60;15.65;;;26.70;99.90;;;;;;5098818;28;20019;-75
2022/03/05 01:05:53;;;;;;;19.95;14.18;;;26.80;99.90;;;;;;5098895;28;20027;-78
2022/03/05 01:08:20;;;;;;;24.77;15.45;;;26.70;99.90;;;;;;5094731;28;20013;-76
2022/03/05 01:10:48;;;;;;;18.63;13.38;;;26.70;99.90;;;;;;5075305;28;20029;-76
2022/03/05 01:13:16;;;;;;;21.95;14.20;;;26.70;99.90;;;;;;5074341;28;20111;-68
2022/03/05 01:15:46;;;;;;;21.58;14.85;;;26.80;99.90;;;;;;5075778;28;20031;-68
2022/03/05 01:18:13;;;;;;;19.45;12.38;;;26.80;99.90;;;;;;5074470;28;20123;-70
2022/03/05 01:20:41;;;;;;;22.38;13.57;;;26.70;99.90;;;;;;5094207;28;20024;-68
2022/03/05 01:23:08;;;;;;;20.48;14.30;;;26.60;99.90;;;;;;5093426;28;20130;-67
2022/03/05 01:25:35;;;;;;;20.02;13.65;;;26.60;99.90;;;;;;5109637;28;20028;-68
2022/03/05 01:28:04;;;;;;;19.95;12.65;;;26.60;99.90;;;;;;5094696;28;20125;-70
2022/03/05 01:30:33;;;;;;;18.45;13.25;;;26.70;99.90;;;;;;5094004;28;20012;-71
2022/03/05 01:33:09;;;;;;;17.55;12.43;;;26.80;99.90;;;;;;5094116;28;20054;-67
2022/03/05 01:35:38;;;;;;;22.48;14.27;;;26.90;99.90;;;;;;5078582;28;20507;-67
2022/03/05 01:38:11;;;;;;;19.42;12.90;;;27.00;99.90;;;;;;5074417;28;20048;-67
2022/03/05 01:40:43;;;;;;;19.67;13.20;;;27.00;99.90;;;;;;5072885;28;20107;-68
2022/03/05 01:43:10;;;;;;;16.13;13.07;;;27.10;99.90;;;;;;5072821;28;20017;-68
2022/03/05 01:45:39;;;;;;;20.25;13.05;;;27.30;99.90;;;;;;5072718;28;20074;-82
2022/03/05 01:48:10;;;;;;;24.23;14.00;;;27.40;99.90;;;;;;5073383;28;20028;-71
2022/03/05 01:50:39;;;;;;;16.30;11.18;;;27.60;99.90;;;;;;5073031;28;20143;-67
2022/03/05 01:53:09;;;;;;;15.13;11.13;;;27.60;99.90;;;;;;5073047;28;20085;-68
2022/03/05 01:55:36;;;;;;;17.60;13.10;;;27.60;99.90;;;;;;5074297;28;20493;-67
2022/03/05 01:58:04;;;;;;;20.08;13.95;;;27.60;99.90;;;;;;5072698;28;20443;-67
2022/03/05 02:00:31;;;;;;;17.05;13.20;;;27.50;99.90;;;;;;5089393;28;20117;-75
2022/03/05 02:03:00;;;;;;;18.00;13.00;;;27.40;99.90;;;;;;5077038;28;20035;-67
2022/03/05 02:05:47;;;;;;;15.48;12.35;;;27.30;99.90;;;;;;5092645;28;20016;-72
2022/03/05 02:08:26;;;;;;;18.63;12.45;;;27.30;99.90;;;;;;5085581;28;20028;-70
2022/03/05 02:10:53;;;;;;;16.63;13.63;;;27.40;99.90;;;;;;5091640;28;20024;-71
2022/03/05 02:13:24;;;;;;;16.63;13.13;;;27.60;99.90;;;;;;5092665;28;20091;-68
2022/03/05 02:15:58;;;;;;;19.08;14.00;;;27.70;99.90;;;;;;5092036;28;20031;-67
2022/03/05 02:18:26;;;;;;;19.85;11.88;;;27.80;99.90;;;;;;5092112;28;20683;-69
2022/03/05 02:20:55;;;;;;;19.63;10.48;;;27.80;99.90;;;;;;5092106;28;20043;-65
2022/03/05 02:23:22;;;;;;;19.88;10.15;;;27.80;99.90;;;;;;5072333;28;20032;-67
2022/03/05 02:25:55;;;;;;;19.33;8.82;;;27.80;99.90;;;;;;5091297;28;20027;-67
2022/03/05 02:28:25;;;;;;;25.05;7.85;;;27.80;99.90;;;;;;5091283;28;20039;-66
2022/03/05 02:30:55;;;;;;;18.17;8.40;;;27.70;99.90;;;;;;5091648;28;20020;-66
2022/03/05 02:33:23;;;;;;;24.48;8.75;;;27.60;99.90;;;;;;5091716;28;20330;-66
2022/03/05 02:35:50;;;;;;;26.00;8.43;;;27.40;99.90;;;;;;5090863;28;20052;-67
2022/03/05 02:38:21;;;;;;;21.60;8.52;;;27.40;99.90;;;;;;5090906;28;20028;-67
2022/03/05 02:40:49;;;;;;;22.52;8.55;;;27.40;99.90;;;;;;5072728;28;20056;-68
2022/03/05 02:43:17;;;;;;;14.70;6.72;;;27.50;99.90;;;;;;5089956;28;20473;-67
2022/03/05 02:45:45;;;;;;;16.75;8.07;;;27.80;99.90;;;;;;5072102;28;20028;-68
2022/03/05 02:48:14;;;;;;;19.15;8.30;;;28.10;99.90;;;;;;5090011;28;20020;-67
2022/03/05 02:50:43;;;;;;;14.32;8.23;;;28.40;99.90;;;;;;5090667;28;20480;-67
2022/03/05 02:53:11;;;;;;;14.95;8.15;;;28.60;99.90;;;;;;5090846;28;20028;-68
2022/03/05 02:55:39;;;;;;;16.15;8.45;;;28.50;99.90;;;;;;5090998;28;20020;-65
2022/03/05 02:58:07;;;;;;;15.55;7.93;;;28.30;99.90;;;;;;5090769;28;20024;-67
2022/03/05 03:00:34;;;;;;;20.80;9.43;;;28.20;99.90;;;;;;5091233;28;20020;-70
2022/03/05 03:03:02;;;;;;;14.77;8.52;;;28.30;99.90;;;;;;5091821;28;20165;-68
2022/03/05 03:05:29;;;;;;;15.88;8.90;;;28.30;99.90;;;;;;5074174;28;20032;-67
2022/03/05 03:07:57;;;;;;;15.15;8.35;;;28.30;99.90;;;;;;5091360;28;20020;-67
2022/03/05 03:10:24;;;;;;;14.65;8.40;;;28.30;99.90;;;;;;5072941;28;20396;-68
2022/03/05 03:12:52;;;;;;;14.38;8.07;;;28.10;99.90;;;;;;5073503;28;20524;-67
2022/03/05 03:15:19;;;;;;;16.50;7.65;;;28.10;99.90;;;;;;5091579;28;20028;-70
2022/03/05 03:17:49;;;;;;;12.95;7.90;;;28.10;99.90;;;;;;5090615;28;20034;-66
2022/03/05 03:20:22;;;;;;;12.05;7.15;;;28.20;99.90;;;;;;5090396;28;20024;-69
2022/03/05 03:22:50;;;;;;;16.80;7.22;;;28.30;99.90;;;;;;5090702;28;20020;-67
2022/03/05 03:25:18;;;;;;;13.23;6.95;;;28.60;99.90;;;;;;5091040;28;20012;-66
2022/03/05 03:27:45;;;;;;;15.77;8.30;;;28.60;99.90;;;;;;5091444;28;20052;-66
2022/03/05 03:30:13;;;;;;;12.75;6.07;;;28.50;99.90;;;;;;5091477;28;20059;-67
2022/03/05 03:32:41;;;;;;;9.85;5.90;;;28.20;99.90;;;;;;5091378;28;20469;-72
2022/03/05 03:35:12;;;;;;;12.43;5.75;;;28.00;99.90;;;;;;5091311;28;20052;-68
2022/03/05 03:37:40;;;;;;;11.75;5.97;;;27.70;99.90;;;;;;5091468;28;20115;-69
2022/03/05 03:40:11;;;;;;;17.10;5.95;;;27.50;99.90;;;;;;5091613;28;20016;-69
2022/03/05 03:42:39;;;;;;;12.98;5.50;;;27.30;99.90;;;;;;5091122;28;20450;-73
2022/03/05 03:45:07;;;;;;;11.98;4.97;;;27.30;99.90;;;;;;5091386;28;20456;-69
2022/03/05 03:47:35;;;;;;;10.50;4.68;;;27.30;99.90;;;;;;5094891;28;20034;-74
2022/03/05 03:50:05;;;;;;;13.60;3.67;;;27.30;99.90;;;;;;5095333;28;20055;-68
2022/03/05 03:52:32;;;;;;;11.07;4.05;;;27.30;99.90;;;;;;5095684;28;20085;-71
2022/03/05 03:55:00;;;;;;;12.38;4.93;;;27.60;99.90;;;;;;5094898;28;20103;-70
2022/03/05 03:57:27;;;;;;;16.17;5.15;;;27.70;99.90;;;;;;5094929;28;20058;-69
2022/03/05 03:59:54;;;;;;;10.90;4.50;;;27.70;99.90;;;;;;5094790;28;20020;-71
2022/03/05 04:02:23;;;;;;;13.60;4.22;;;27.70;99.90;;;;;;5095001;28;20073;-67
2022/03/05 04:04:50;;;;;;;12.95;3.58;;;27.80;99.90;;;;;;5094997;28;20016;-68
2022/03/05 04:10:06;;;;;;;12.10;3.67;;;27.80;99.90;;;;;;5094834;28;20383;-73
2022/03/05 04:12:35;;;;;;;13.48;4.15;;;27.90;99.90;;;;;;5086595;28;20042;-68
2022/03/05 04:15:04;;;;;;;13.10;2.90;;;27.90;99.90;;;;;;5084066;28;20020;-68
2022/03/05 04:17:32;;;;;;;11.25;3.35;;;27.90;99.90;;;;;;5092496;28;20036;-68
2022/03/05 04:19:59;;;;;;;10.98;3.33;;;28.00;99.90;;;;;;5093513;28;20069;-68
2022/03/05 04:22:26;;;;;;;13.10;3.20;;;28.30;99.90;;;;;;5086853;28;20023;-70
2022/03/05 04:24:54;;;;;;;12.05;3.78;;;28.70;99.90;;;;;;5073040;28;20024;-71
2022/03/05 04:27:21;;;;;;;6.32;2.40;;;29.20;99.90;;;;;;5093973;28;20030;-73
2022/03/05 04:29:48;;;;;;;8.48;2.45;;;29.30;99.90;;;;;;5093919;28;20027;-69
2022/03/05 04:32:15;;;;;;;10.13;2.00;;;29.60;99.90;;;;;;5093240;28;20016;-68
2022/03/05 04:34:43;;;;;;;11.65;2.45;;;29.70;99.90;;;;;;5093954;28;20036;-71
2022/03/05 04:37:10;;;;;;;9.63;2.00;;;29.80;99.90;;;;;;5093696;28;20031;-72
2022/03/05 04:39:37;;;;;;;9.25;2.50;;;29.90;99.90;;;;;;5093366;28;20115;-68
2022/03/05 04:42:05;;;;;;;8.43;2.35;;;30.20;99.90;;;;;;5092893;28;20028;-70
2022/03/05 04:44:35;;;;;;;9.32;2.20;;;30.70;99.90;;;;;;5093119;28;20059;-70
2022/03/05 04:47:03;;;;;;;10.85;2.53;;;30.90;99.90;;;;;;5093739;28;20372;-72
2022/03/05 04:49:30;;;;;;;9.10;2.53;;;31.40;99.90;;;;;;5093586;28;20024;-72
2022/03/05 04:51:58;;;;;;;8.20;2.22;;;32.10;99.90;;;;;;5093240;28;20017;-68
2022/03/05 04:54:29;;;;;;;6.90;1.77;;;32.70;98.50;;;;;;5071610;28;20036;-76
2022/03/05 04:56:57;;;;;;;9.27;1.50;;;32.40;97.90;;;;;;5094739;28;20036;-78
2022/03/05 04:59:25;;;;;;;7.47;1.80;;;32.40;98.60;;;;;;5112852;28;20020;-73
2022/03/05 05:01:52;;;;;;;5.82;2.17;;;32.30;97.80;;;;;;5103647;28;20024;-74
2022/03/05 05:04:19;;;;;;;10.82;2.28;;;32.70;97.80;;;;;;5092264;28;20017;-78
2022/03/05 05:06:48;;;;;;;5.72;1.20;;;32.80;96.70;;;;;;5092858;28;20392;-71
2022/03/05 05:09:16;;;;;;;7.80;1.52;;;33.20;96.30;;;;;;5102784;28;20035;-71
2022/03/05 05:11:45;;;;;;;8.68;1.95;;;33.30;96.40;;;;;;5091870;28;20028;-77
2022/03/05 05:14:13;;;;;;;11.30;2.95;;;32.80;96.00;;;;;;5099593;28;20456;-72
2022/03/05 05:16:41;;;;;;;7.72;1.70;;;32.10;96.60;;;;;;5108127;28;20127;-73
2022/03/05 05:21:55;;;;;;;12.25;2.20;;;30.90;98.90;;;;;;5092151;28;20166;-75
2022/03/05 05:24:28;;;;;;;6.20;1.70;;;30.40;99.30;;;;;;5092226;28;20537;-72
2022/03/05 05:26:56;;;;;;;7.03;1.70;;;30.10;99.90;;;;;;5092470;28;20027;-70
2022/03/05 05:29:24;;;;;;;9.38;2.30;;;29.70;99.90;;;;;;5092269;28;20120;-75
2022/03/05 05:31:51;;;;;;;9.18;1.50;;;29.60;99.90;;;;;;5092058;28;20031;-70
2022/03/05 05:34:19;;;;;;;10.50;1.85;;;29.50;99.90;;;;;;5091664;28;20040;-72
2022/03/05 05:36:46;;;;;;;9.75;1.60;;;29.70;99.90;;;;;;5092122;28;20028;-73
2022/03/05 05:39:15;;;;;;;9.07;1.95;;;30.20;99.90;;;;;;5092469;28;20027;-76
2022/03/05 05:41:43;;;;;;;11.13;1.90;;;31.00;99.90;;;;;;5107263;28;20107;-74
2022/03/05 05:44:31;;;;;;;7.85;1.90;;;31.80;99.00;;;;;;5092036;28;20020;-69
2022/03/05 05:46:58;;;;;;;5.55;1.40;;;32.60;97.40;;;;;;5091669;28;20138;-78
2022/03/05 05:49:25;;;;;;;7.43;1.50;;;32.90;96.80;;;;;;5092143;28;20591;-73
2022/03/05 05:51:53;;;;;;;4.25;1.50;;;32.50;96.30;;;;;;5104966;28;20388;-74
2022/03/05 05:54:23;;;;;;;5.55;1.27;;;32.50;97.40;;;;;;5091566;28;20433;-73
2022/03/05 05:56:51;;;;;;;8.65;2.15;;;33.30;95.80;;;;;;5073684;28;20385;-70
2022/03/05 05:59:26;;;;;;;10.32;2.15;;;33.50;95.00;;;;;;5091954;28;20051;-74
2022/03/05 06:01:54;;;;;;;7.38;1.70;;;33.50;95.00;;;;;;5100474;28;20036;-75
2022/03/05 06:04:21;;;;;;;3.33;1.10;;;33.30;95.00;;;;;;5091608;28;20054;-71
2022/03/05 06:06:48;;;;;;;6.63;1.77;;;33.50;94.90;;;;;;5091948;28;20039;-70
2022/03/05 06:09:16;;;;;;;4.50;1.38;;;33.60;94.30;;;;;;5072582;28;20065;-77
2022/03/05 06:11:43;;;;;;;7.90;1.42;;;33.30;94.20;;;;;;5090775;28;20027;-72
2022/03/05 06:14:20;;;;;;;6.97;1.35;;;33.00;94.70;;;;;;5072530;28;20711;-73
2022/03/05 06:16:49;;;;;;;6.55;1.42;;;32.30;95.70;;;;;;5085657;28;20609;-70
2022/03/05 06:19:17;;;;;;;7.15;1.58;;;31.50;96.40;;;;;;5091799;28;20399;-77
2022/03/05 06:21:51;;;;;;;12.90;1.73;;;30.90;97.70;;;;;;5072796;28;20077;-71
2022/03/05 06:24:18;;;;;;;10.18;1.60;;;30.60;98.00;;;;;;5091157;28;20016;-73
2022/03/05 06:26:46;;;;;;;11.10;1.85;;;30.30;98.90;;;;;;5091856;28;20020;-70
2022/03/05 06:29:14;;;;;;;6.25;1.45;;;30.10;99.10;;;;;;5073809;28;20024;-69
2022/03/05 06:31:41;;;;;;;12.43;2.22;;;29.70;99.60;;;;;;5091645;28;20036;-71
2022/03/05 06:34:09;;;;;;;6.05;1.45;;;29.10;99.90;;;;;;5090708;28;20023;-70
2022/03/05 06:36:36;;;;;;;6.15;1.98;;;28.60;99.90;;;;;;5091329;28;20032;-69
2022/03/05 06:39:06;;;;;;;6.10;1.20;;;28.30;99.90;;;;;;5084317;28;20427;-68
2022/03/05 06:41:33;;;;;;;10.32;1.70;;;28.00;99.90;;;;;;5081514;28;20024;-71
2022/03/05 06:44:01;;;;;;;9.60;2.38;;;27.80;99.90;;;;;;5084055;28;20052;-69
2022/03/05 06:46:28;;;;;;;11.95;2.05;;;27.60;99.90;;;;;;5091632;28;20028;-76
2022/03/05 06:48:55;;;;;;;8.32;2.47;;;27.60;99.90;;;;;;5073684;28;20087;-70
2022/03/05 06:51:23;;;;;;;8.38;1.90;;;27.40;99.90;;;;;;5107185;28;20026;-74
2022/03/05 06:53:50;;;;;;;11.02;1.92;;;27.30;99.90;;;;;;5098034;28;20089;-77
2022/03/05 06:56:17;;;;;;;8.93;1.77;;;27.20;99.90;;;;;;5071134;28;20020;-70
2022/03/05 06:58:45;;;;;;;6.38;2.20;;;27.10;99.90;;;;;;5071070;28;20036;-69
2022/03/05 07:01:12;;;;;;;8.70;1.80;;;26.90;99.90;;;;;;5071129;28;20099;-70
2022/03/05 07:03:40;;;;;;;7.22;1.58;;;26.80;99.90;;;;;;5082189;28;20053;-68
2022/03/05 07:06:07;;;;;;;15.45;2.00;;;26.70;99.90;;;;;;5091071;28;20059;-68
2022/03/05 07:08:36;;;;;;;7.65;1.70;;;26.80;99.90;;;;;;5090848;28;20527;-67
2022/03/05 07:11:04;;;;;;;11.00;2.30;;;26.70;99.90;;;;;;5090692;28;20028;-70
2022/03/05 07:13:31;;;;;;;11.85;3.17;;;26.70;99.90;;;;;;5090251;28;20016;-72
2022/03/05 07:15:59;;;;;;;10.32;1.95;;;26.60;99.90;;;;;;5086284;28;20024;-76
2022/03/05 07:18:26;;;;;;;8.40;2.63;;;26.60;99.90;;;;;;5090899;28;20226;-70
2022/03/05 07:20:53;;;;;;;5.05;1.42;;;26.50;99.90;;;;;;5091996;28;20103;-72
2022/03/05 07:23:20;;;;;;;7.63;1.85;;;26.40;99.90;;;;;;5074035;28;20415;-68
2022/03/05 07:25:48;;;;;;;10.82;1.65;;;26.30;99.90;;;;;;5092985;28;20024;-71
2022/03/05 07:28:15;;;;;;;10.25;2.40;;;26.20;99.90;;;;;;5095324;28;20102;-72
2022/03/05 07:30:43;;;;;;;9.02;2.00;;;26.20;99.90;;;;;;5094779;28;20016;-72
2022/03/05 07:33:10;;;;;;;13.05;2.45;;;26.10;99.90;;;;;;5095145;28;20024;-72
2022/03/05 07:35:38;;;;;;;12.88;2.13;;;26.10;99.90;;;;;;5094880;28;20040;-73
2022/03/05 07:38:05;;;;;;;11.68;2.20;;;26.00;99.90;;;;;;5094561;28;20742;-71
2022/03/05 07:40:32;;;;;;;10.52;2.40;;;26.00;99.90;;;;;;5095075;28;20040;-74
2022/03/05 07:43:00;;;;;;;10.50;2.65;;;25.90;99.90;;;;;;5094904;28;20024;-68
2022/03/05 07:45:27;;;;;;;11.32;1.85;;;25.80;99.90;;;;;;5094245;28;20073;-69
2022/03/05 07:47:54;;;;;;;8.40;1.65;;;25.70;99.90;;;;;;5094867;28;20126;-68
2022/03/05 07:50:22;;;;;;;9.05;1.88;;;25.60;99.90;;;;;;5095045;28;20028;-71
2022/03/05 07:52:49;;;;;;;12.20;2.03;;;25.60;99.90;;;;;;5094913;28;20066;-68
2022/03/05 07:55:17;;;;;;;10.90;1.70;;;25.60;99.90;;;;;;5094464;28;20020;-70
2022/03/05 07:57:44;;;;;;;11.15;1.98;;;25.60;99.90;;;;;;5094618;28;20032;-69
2022/03/05 08:00:11;;;;;;;18.52;2.85;;;25.60;99.90;;;;;;5094830;28;20026;-69
2022/03/05 08:02:39;;;;;;;8.40;2.33;;;25.60;99.90;;;;;;5094306;28;20055;-71
2022/03/05 08:05:07;;;;;;;9.68;2.38;;;25.50;99.90;;;;;;5094282;28;20175;-69
2022/03/05 08:07:34;;;;;;;12.25;2.55;;;25.50;99.90;;;;;;5094334;28;20046;-68
2022/03/05 08:10:01;;;;;;;11.90;3.00;;;25.50;99.90;;;;;;5093974;28;20397;-71
2022/03/05 08:12:29;;;;;;;9.88;2.55;;;25.50;99.90;;;;;;5094076;28;20519;-68
2022/03/05 08:14:56;;;;;;;8.88;3.58;;;25.50;99.90;;;;;;5094092;28;20040;-69
2022/03/05 08:17:24;;;;;;;12.63;2.92;;;25.40;99.90;;;;;;5094146;28;20024;-70
2022/03/05 08:19:52;;;;;;;12.65;4.03;;;25.30;99.90;;;;;;5094245;28;20069;-72
2022/03/05 08:22:19;;;;;;;7.88;3.00;;;25.40;99.90;;;;;;5094130;28;20027;-69
2022/03/05 08:24:46;;;;;;;12.77;3.08;;;25.40;99.90;;;;;;5094036;28;20060;-69
2022/03/05 08:27:13;;;;;;;8.50;2.58;;;25.30;99.90;;;;;;5094202;28;20406;-68
2022/03/05 08:29:41;;;;;;;9.70;2.63;;;25.30;99.90;;;;;;5094314;28;20027;-69
2022/03/05 08:32:09;;;;;;;15.73;2.47;;;25.30;99.90;;;;;;5090147;28;20020;-77
2022/03/05 08:34:36;;;;;;;10.35;2.80;;;25.30;99.90;;;;;;5075529;28;20392;-70
2022/03/05 08:37:03;;;;;;;13.50;2.63;;;25.30;99.90;;;;;;5094297;28;20078;-68
2022/03/05 08:39:31;;;;;;;10.80;2.25;;;25.30;99.90;;;;;;5094035;28;20107;-69
2022/03/05 08:41:58;;;;;;;10.40;2.30;;;25.30;99.90;;;;;;5094116;28;20456;-71
2022/03/05 08:44:25;;;;;;;11.98;2.05;;;25.20;99.90;;;;;;5094094;28;20024;-70
2022/03/05 08:46:53;;;;;;;15.77;2.85;;;25.30;99.90;;;;;;5094456;28;20114;-69
2022/03/05 08:49:20;;;;;;;15.85;3.83;;;25.20;99.90;;;;;;5093727;28;20016;-70
2022/03/05 08:51:47;;;;;;;13.80;2.72;;;25.30;99.90;;;;;;5094023;28;20024;-69
2022/03/05 08:54:14;;;;;;;14.18;2.15;;;25.20;99.90;;;;;;5094022;28;20100;-68
2022/03/05 08:56:42;;;;;;;8.75;2.35;;;25.20;99.90;;;;;;5093798;28;20073;-72
2022/03/05 08:59:09;;;;;;;9.18;2.72;;;25.20;99.90;;;;;;5094042;28;20027;-67
2022/03/05 09:01:36;;;;;;;13.35;2.95;;;25.20;99.90;;;;;;5089331;28;20031;-70
2022/03/05 09:04:04;;;;;;;8.98;2.50;;;25.20;99.90;;;;;;5091799;28;20047;-69
2022/03/05 09:06:32;;;;;;;12.20;2.40;;;25.10;99.90;;;;;;5092845;28;20016;-70
2022/03/05 09:09:02;;;;;;;11.27;3.50;;;25.10;99.90;;;;;;5090999;28;20106;-70
2022/03/05 09:11:29;;;;;;;13.65;4.75;;;25.10;99.90;;;;;;5093681;28;20023;-73
2022/03/05 09:13:56;;;;;;;10.88;3.65;;;25.10;99.90;;;;;;5092277;28;20089;-72
2022/03/05 09:16:24;;;;;;;47.30;30.55;;;25.00;99.90;;;;;;5092893;28;20016;-70
2022/03/05 09:18:51;;;;;;;14.73;5.82;;;25.00;99.90;;;;;;5092772;28;20108;-70
2022/03/05 09:21:18;;;;;;;13.77;3.15;;;25.00;99.90;;;;;;5093078;28;20031;-70
2022/03/05 09:23:47;;;;;;;12.02;2.65;;;25.00;99.90;;;;;;5093091;28;20384;-68
2022/03/05 09:26:15;;;;;;;9.80;2.80;;;25.00;99.90;;;;;;5092897;28;20018;-69
2022/03/05 09:28:43;;;;;;;7.78;2.40;;;25.10;99.90;;;;;;5087274;28;20066;-70
2022/03/05 09:31:12;;;;;;;11.52;2.40;;;25.10;99.90;;;;;;5088636;28;20053;-72
2022/03/05 09:33:39;;;;;;;11.73;2.40;;;25.00;99.90;;;;;;5092594;28;20027;-70
2022/03/05 09:36:06;;;;;;;11.13;2.08;;;25.00;99.90;;;;;;5092349;28;20054;-70
2022/03/05 09:38:34;;;;;;;13.07;2.90;;;25.00;99.90;;;;;;5092649;28;20362;-69
2022/03/05 09:41:03;;;;;;;10.05;2.35;;;24.90;99.90;;;;;;5092166;28;20026;-69
2022/03/05 09:43:31;;;;;;;16.92;3.58;;;24.90;99.90;;;;;;5092153;28;20059;-69
2022/03/05 09:45:58;;;;;;;21.40;4.05;;;24.90;99.90;;;;;;5092626;28;20543;-71
2022/03/05 09:48:29;;;;;;;13.48;2.50;;;24.90;99.90;;;;;;5092090;28;20044;-67
2022/03/05 09:50:57;;;;;;;13.75;2.60;;;24.90;99.90;;;;;;5091729;28;20016;-68
2022/03/05 09:53:32;;;;;;;11.70;2.20;;;24.80;99.90;;;;;;5092223;28;20123;-67
2022/03/05 09:55:59;;;;;;;12.27;2.70;;;24.80;99.90;;;;;;5092030;28;20019;-69
2022/03/05 09:58:26;;;;;;;14.48;3.53;;;24.80;99.90;;;;;;5091710;28;20282;-68
2022/03/05 10:00:53;;;;;;;12.90;3.33;;;24.80;99.90;;;;;;5091813;28;20016;-71
2022/03/05 10:08:25;;;;;;;14.20;2.33;;;24.90;99.90;;;;;;4996264;28;20542;-75
2022/03/05 10:11:09;;;;;;;10.23;2.90;;;24.80;99.90;;;;;;5009146;28;20113;-71
2022/03/05 10:13:37;;;;;;;13.48;3.10;;;24.80;99.90;;;;;;5011913;28;20421;-71
2022/03/05 10:16:07;;;;;;;8.60;2.92;;;24.90;99.90;;;;;;5011831;28;20017;-71
2022/03/05 10:18:40;;;;;;;15.13;3.53;;;24.90;99.90;;;;;;5011564;28;20064;-73
2022/03/05 10:21:09;;;;;;;17.45;3.10;;;24.90;99.90;;;;;;5011922;28;20374;-71
2022/03/05 10:23:42;;;;;;;14.15;3.92;;;24.90;99.90;;;;;;5011700;28;20109;-70
2022/03/05 10:26:11;;;;;;;14.68;3.67;;;24.80;99.90;;;;;;5006550;28;20032;-74
2022/03/05 10:28:39;;;;;;;15.90;3.17;;;24.80;99.90;;;;;;5011162;28;20022;-71
2022/03/05 10:31:11;;;;;;;12.00;3.20;;;24.80;99.90;;;;;;5010110;28;20448;-72
2022/03/05 10:33:48;;;;;;;18.35;3.08;;;24.80;99.90;;;;;;5013889;28;20022;-70
2022/03/05 10:36:26;;;;;;;13.55;3.50;;;24.80;99.90;;;;;;5011541;28;20022;-71
2022/03/05 10:39:02;;;;;;;19.00;3.95;;;24.80;99.90;;;;;;5017605;28;20109;-71
2022/03/05 10:41:37;;;;;;;29.48;5.63;;;24.80;99.90;;;;;;5030836;28;20467;-74
2022/03/05 10:44:11;;;;;;;13.45;2.95;;;24.70;99.90;;;;;;5021986;28;20025;-69
2022/03/05 10:47:00;;;;;;;16.55;3.22;;;24.70;99.90;;;;;;5016327;28;20060;-69
2022/03/05 10:49:36;;;;;;;16.65;3.53;;;24.70;99.90;;;;;;5031385;28;20030;-71
2022/03/05 10:52:04;;;;;;;13.02;3.40;;;24.70;99.90;;;;;;5020551;28;20034;-70
2022/03/05 10:54:42;;;;;;;14.73;2.80;;;24.70;99.90;;;;;;5023836;28;20377;-70
2022/03/05 10:57:16;;;;;;;14.90;4.20;;;24.70;99.90;;;;;;5025323;28;20025;-69
2022/03/05 10:59:52;;;;;;;15.82;3.60;;;24.70;99.90;;;;;;5026126;28;20053;-68
2022/03/05 11:02:21;;;;;;;19.83;4.15;;;24.70;99.90;;;;;;5010496;28;20034;-71
2022/03/05 11:04:50;;;;;;;18.05;3.72;;;24.60;99.90;;;;;;5010461;28;20092;-71
2022/03/05 11:07:20;;;;;;;14.88;3.88;;;24.70;99.90;;;;;;5011149;28;20141;-71
2022/03/05 11:09:49;;;;;;;12.18;3.42;;;24.60;99.90;;;;;;5011257;28;20050;-69
2022/03/05 11:12:19;;;;;;;19.40;3.28;;;24.70;99.90;;;;;;5018829;28;20044;-74
2022/03/05 11:14:52;;;;;;;17.35;3.42;;;24.70;99.90;;;;;;5026327;28;20053;-72
2022/03/05 11:17:20;;;;;;;19.58;5.30;;;24.70;99.90;;;;;;5006782;28;20059;-73
2022/03/05 11:19:49;;;;;;;21.08;4.63;;;24.70;99.90;;;;;;5011137;28;20052;-73
2022/03/05 11:22:17;;;;;;;15.35;3.90;;;24.70;99.90;;;;;;5011056;28;20091;-72
2022/03/05 11:24:45;;;;;;;14.57;3.65;;;24.70;99.90;;;;;;5009392;28;20473;-72
2022/03/05 11:27:17;;;;;;;15.52;3.30;;;24.70;99.90;;;;;;5011256;28;20106;-70
2022/03/05 11:29:54;;;;;;;;;;;24.60;99.90;;;;;;5002538;28;20041;-68
2022/03/05 11:32:23;;;;;;;19.00;3.33;;;24.70;99.90;;;;;;4991849;28;19906;-67
2022/03/05 11:34:53;;;;;;;20.80;3.28;;;24.70;99.90;;;;;;4992093;28;20081;-69
2022/03/05 11:37:31;;;;;;;13.70;3.05;;;24.70;99.90;;;;;;5009100;28;20040;-72
2022/03/05 11:40:01;;;;;;;17.50;3.47;;;24.70;99.90;;;;;;5009234;28;20509;-72
2022/03/05 11:42:37;;;;;;;10.25;2.83;;;24.70;99.90;;;;;;5011710;28;20034;-69
2022/03/05 11:45:27;;;;;;;9.90;2.78;;;24.80;99.90;;;;;;5011418;28;20029;-74
2022/03/05 11:48:14;;;;;;;9.90;2.15;;;24.70;99.90;;;;;;5011383;28;20060;-68
2022/03/05 11:50:51;;;;;;;8.80;2.00;;;24.60;99.90;;;;;;5011169;28;20075;-68
2022/03/05 11:53:18;;;;;;;8.70;1.58;;;24.60;99.90;;;;;;5011458;28;20093;-68
2022/03/05 11:55:47;;;;;;;5.20;1.60;;;24.50;99.90;;;;;;5011000;28;20060;-67
2022/03/05 11:58:14;;;;;;;6.00;1.00;;;24.50;99.90;;;;;;5011333;28;20033;-71
2022/03/05 12:00:44;;;;;;;3.72;0.80;;;24.30;99.90;;;;;;5011517;28;20140;-73
2022/03/05 12:03:22;;;;;;;1.73;0.73;;;24.20;99.90;;;;;;5011213;28;20042;-71
2022/03/05 12:05:50;;;;;;;2.60;0.90;;;24.00;99.90;;;;;;5011169;28;20029;-70
2022/03/05 12:08:28;;;;;;;1.80;0.52;;;23.90;99.90;;;;;;5014077;28;20040;-68
2022/03/05 12:11:15;;;;;;;1.75;0.50;;;23.80;99.90;;;;;;5014832;28;20022;-69
2022/03/05 12:13:45;;;;;;;1.15;0.52;;;23.70;99.90;;;;;;5014813;28;20159;-72
2022/03/05 12:16:20;;;;;;;4.80;0.80;;;23.60;99.90;;;;;;5014895;28;20093;-67
2022/03/05 12:18:49;;;;;;;4.65;0.60;;;23.60;99.90;;;;;;5014325;28;20397;-65
2022/03/05 12:21:26;;;;;;;3.08;0.80;;;23.40;99.90;;;;;;5014602;28;20021;-69
2022/03/05 12:24:07;;;;;;;4.88;1.40;;;23.30;99.90;;;;;;5014501;28;20026;-70
2022/03/05 12:26:40;;;;;;;5.05;1.17;;;23.20;99.90;;;;;;5014866;28;20025;-71
2022/03/05 12:29:09;;;;;;;11.65;2.63;;;23.10;99.90;;;;;;5014499;28;20033;-68
2022/03/05 12:31:43;;;;;;;3.75;1.30;;;22.90;99.90;;;;;;5014555;28;20053;-68
2022/03/05 12:34:12;;;;;;;3.83;1.30;;;22.70;99.90;;;;;;5012983;28;20564;-68
2022/03/05 12:36:47;;;;;;;5.15;1.00;;;22.60;99.90;;;;;;5014355;28;20038;-70
2022/03/05 12:39:15;;;;;;;2.85;1.00;;;22.50;99.90;;;;;;5014131;28;20132;-67
2022/03/05 12:41:45;;;;;;;4.38;1.60;;;22.40;99.90;;;;;;5014234;28;20022;-67
2022/03/05 12:44:14;;;;;;;2.38;1.00;;;22.30;99.90;;;;;;5012717;28;20037;-67
2022/03/05 12:46:42;;;;;;;2.42;0.90;;;22.20;99.90;;;;;;5013876;28;20033;-68
2022/03/05 12:49:10;;;;;;;3.33;1.25;;;22.10;99.90;;;;;;5013934;28;20053;-67
2022/03/05 12:51:38;;;;;;;4.28;1.10;;;22.10;99.90;;;;;;5014233;28;20030;-67
2022/03/05 12:54:06;;;;;;;2.47;1.17;;;22.10;99.90;;;;;;5014208;28;20105;-68
2022/03/05 12:56:35;;;;;;;3.28;1.02;;;22.00;99.90;;;;;;5013922;28;20034;-67
2022/03/05 12:59:04;;;;;;;5.22;1.50;;;22.00;99.90;;;;;;5013761;28;20026;-70